sensor_id;sensor_type;location;lat;lon;timestamp;P1;durP1;ratioP1;P2;durP2;ratioP2
15043;SDS011;7619;48.562;8.910;2023-02-23T00:02:16;21.13;;;14.13;;
15043;SDS011;7619;48.562;8.910;2023-02-23T00:04:45;19.93;;;14.53;;
15043;SDS011;7619;48.562;8.910;2023-02-23T00:07:13;20.93;;;14.10;;
15043;SDS011;7619;48.562;8.910;2023-02-23T00:09:43;24.37;;;14.03;;
15043;SDS011;7619;48.562;8.910;2023-02-23T00:12:12;23.40;;;14.33;;
15043;SDS011;7619;48.562;8.910;2023-02-23T00:14:42;20.73;;;13.47;;
15043;SDS011;7619;48.562;8.910;2023-02-23T00:17:11;22.13;;;13.97;;
15043;SDS011;7619;48.562;8.910;2023-02-23T00:19:42;22.97;;;13.27;;
15043;SDS011;7619;48.562;8.910;2023-02-23T00:22:10;18.27;;;13.30;;
15043;SDS011;7619;48.562;8.910;2023-02-23T00:24:38;18.10;;;13.07;;
15043;SDS011;7619;48.562;8.910;2023-02-23T00:27:08;19.10;;;13.00;;
15043;SDS011;7619;48.562;8.910;2023-02-23T00:29:36;20.03;;;12.80;;
15043;SDS011;7619;48.562;8.910;2023-02-23T00:32:05;21.83;;;12.60;;
15043;SDS011;7619;48.562;8.910;2023-02-23T00:34:35;18.80;;;13.00;;
15043;SDS011;7619;48.562;8.910;2023-02-23T00:37:03;18.90;;;12.40;;
15043;SDS011;7619;48.562;8.910;2023-02-23T00:39:34;20.03;;;12.13;;
15043;SDS011;7619;48.562;8.910;2023-02-23T00:42:01;20.93;;;13.30;;
15043;SDS011;7619;48.562;8.910;2023-02-23T00:44:32;19.83;;;12.50;;
15043;SDS011;7619;48.562;8.910;2023-02-23T00:47:00;17.83;;;12.47;;
15043;SDS011;7619;48.562;8.910;2023-02-23T00:49:28;18.43;;;12.33;;
15043;SDS011;7619;48.562;8.910;2023-02-23T00:51:57;18.80;;;12.03;;
15043;SDS011;7619;48.562;8.910;2023-02-23T00:54:25;20.57;;;13.33;;
15043;SDS011;7619;48.562;8.910;2023-02-23T00:56:53;18.73;;;11.70;;
15043;SDS011;7619;48.562;8.910;2023-02-23T00:59:21;22.03;;;13.00;;
15043;SDS011;7619;48.562;8.910;2023-02-23T01:01:49;19.77;;;12.47;;
15043;SDS011;7619;48.562;8.910;2023-02-23T01:04:17;18.57;;;12.60;;
15043;SDS011;7619;48.562;8.910;2023-02-23T01:06:48;15.63;;;11.03;;
15043;SDS011;7619;48.562;8.910;2023-02-23T01:09:16;17.83;;;11.63;;
15043;SDS011;7619;48.562;8.910;2023-02-23T01:11:47;19.43;;;11.43;;
15043;SDS011;7619;48.562;8.910;2023-02-23T01:14:15;20.87;;;11.87;;
15043;SDS011;7619;48.562;8.910;2023-02-23T01:16:43;18.70;;;12.90;;
15043;SDS011;7619;48.562;8.910;2023-02-23T01:19:12;18.93;;;12.53;;
15043;SDS011;7619;48.562;8.910;2023-02-23T01:21:40;19.13;;;12.33;;
15043;SDS011;7619;48.562;8.910;2023-02-23T01:24:08;19.53;;;12.93;;
15043;SDS011;7619;48.562;8.910;2023-02-23T01:26:39;16.67;;;12.27;;
15043;SDS011;7619;48.562;8.910;2023-02-23T01:29:10;18.73;;;12.33;;
15043;SDS011;7619;48.562;8.910;2023-02-23T01:31:39;18.47;;;13.03;;
15043;SDS011;7619;48.562;8.910;2023-02-23T01:34:10;23.63;;;14.57;;
15043;SDS011;7619;48.562;8.910;2023-02-23T01:36:39;20.53;;;13.17;;
15043;SDS011;7619;48.562;8.910;2023-02-23T01:39:10;19.13;;;13.17;;
15043;SDS011;7619;48.562;8.910;2023-02-23T01:41:38;16.10;;;11.57;;
15043;SDS011;7619;48.562;8.910;2023-02-23T01:47:14;16.03;;;11.53;;
15043;SDS011;7619;48.562;8.910;2023-02-23T01:49:42;20.90;;;13.87;;
15043;SDS011;7619;48.562;8.910;2023-02-23T01:52:11;19.90;;;12.97;;
15043;SDS011;7619;48.562;8.910;2023-02-23T01:54:43;21.17;;;14.00;;
15043;SDS011;7619;48.562;8.910;2023-02-23T01:57:14;20.37;;;13.80;;
15043;SDS011;7619;48.562;8.910;2023-02-23T01:59:43;17.93;;;13.10;;
15043;SDS011;7619;48.562;8.910;2023-02-23T02:02:12;20.20;;;12.83;;
15043;SDS011;7619;48.562;8.910;2023-02-23T02:04:41;19.63;;;13.20;;
15043;SDS011;7619;48.562;8.910;2023-02-23T02:07:09;22.83;;;14.60;;
15043;SDS011;7619;48.562;8.910;2023-02-23T02:09:41;20.70;;;14.60;;
15043;SDS011;7619;48.562;8.910;2023-02-23T02:12:13;22.70;;;13.90;;
15043;SDS011;7619;48.562;8.910;2023-02-23T02:14:44;19.10;;;12.83;;
15043;SDS011;7619;48.562;8.910;2023-02-23T02:17:16;20.00;;;13.50;;
15043;SDS011;7619;48.562;8.910;2023-02-23T02:23:14;18.13;;;12.30;;
15043;SDS011;7619;48.562;8.910;2023-02-23T02:26:04;17.50;;;12.30;;
15043;SDS011;7619;48.562;8.910;2023-02-23T02:28:41;18.30;;;12.60;;
15043;SDS011;7619;48.562;8.910;2023-02-23T02:31:17;16.53;;;11.83;;
15043;SDS011;7619;48.562;8.910;2023-02-23T02:34:16;17.37;;;12.23;;
15043;SDS011;7619;48.562;8.910;2023-02-23T02:37:09;20.37;;;12.43;;
15043;SDS011;7619;48.562;8.910;2023-02-23T02:40:01;18.97;;;12.10;;
15043;SDS011;7619;48.562;8.910;2023-02-23T02:42:49;19.27;;;12.33;;
15043;SDS011;7619;48.562;8.910;2023-02-23T02:45:26;19.30;;;11.57;;
15043;SDS011;7619;48.562;8.910;2023-02-23T02:48:00;22.80;;;14.23;;
15043;SDS011;7619;48.562;8.910;2023-02-23T02:50:41;18.90;;;12.53;;
15043;SDS011;7619;48.562;8.910;2023-02-23T02:53:13;22.57;;;13.37;;
15043;SDS011;7619;48.562;8.910;2023-02-23T02:55:45;19.23;;;11.27;;
15043;SDS011;7619;48.562;8.910;2023-02-23T02:58:15;18.37;;;12.23;;
15043;SDS011;7619;48.562;8.910;2023-02-23T03:00:45;22.27;;;11.57;;
15043;SDS011;7619;48.562;8.910;2023-02-23T03:03:32;19.20;;;11.77;;
15043;SDS011;7619;48.562;8.910;2023-02-23T03:06:21;17.67;;;11.20;;
15043;SDS011;7619;48.562;8.910;2023-02-23T03:09:12;18.57;;;11.23;;
15043;SDS011;7619;48.562;8.910;2023-02-23T03:12:06;18.97;;;12.03;;
15043;SDS011;7619;48.562;8.910;2023-02-23T03:14:58;17.43;;;10.97;;
15043;SDS011;7619;48.562;8.910;2023-02-23T03:17:47;19.70;;;11.53;;
15043;SDS011;7619;48.562;8.910;2023-02-23T03:20:36;17.20;;;11.33;;
15043;SDS011;7619;48.562;8.910;2023-02-23T03:23:23;18.93;;;12.97;;
15043;SDS011;7619;48.562;8.910;2023-02-23T03:26:13;18.40;;;11.60;;
15043;SDS011;7619;48.562;8.910;2023-02-23T03:29:01;19.07;;;12.60;;
15043;SDS011;7619;48.562;8.910;2023-02-23T03:31:49;20.03;;;12.37;;
15043;SDS011;7619;48.562;8.910;2023-02-23T03:34:39;20.97;;;12.77;;
15043;SDS011;7619;48.562;8.910;2023-02-23T03:37:29;21.07;;;12.67;;
15043;SDS011;7619;48.562;8.910;2023-02-23T03:40:17;18.40;;;12.13;;
15043;SDS011;7619;48.562;8.910;2023-02-23T03:43:07;17.00;;;11.63;;
15043;SDS011;7619;48.562;8.910;2023-02-23T03:45:55;21.27;;;12.43;;
15043;SDS011;7619;48.562;8.910;2023-02-23T03:48:44;17.27;;;11.70;;
15043;SDS011;7619;48.562;8.910;2023-02-23T03:51:34;18.30;;;12.17;;
15043;SDS011;7619;48.562;8.910;2023-02-23T03:54:25;18.10;;;12.70;;
15043;SDS011;7619;48.562;8.910;2023-02-23T03:57:11;15.27;;;11.13;;
15043;SDS011;7619;48.562;8.910;2023-02-23T04:00:01;17.80;;;11.83;;
15043;SDS011;7619;48.562;8.910;2023-02-23T04:02:51;18.50;;;12.13;;
15043;SDS011;7619;48.562;8.910;2023-02-23T04:05:41;19.20;;;12.13;;
15043;SDS011;7619;48.562;8.910;2023-02-23T04:08:28;16.73;;;11.87;;
15043;SDS011;7619;48.562;8.910;2023-02-23T04:11:18;16.77;;;12.17;;
15043;SDS011;7619;48.562;8.910;2023-02-23T04:14:23;17.97;;;11.73;;
15043;SDS011;7619;48.562;8.910;2023-02-23T04:16:36;19.47;;;13.10;;
15043;SDS011;7619;48.562;8.910;2023-02-23T04:19:06;19.70;;;13.10;;
15043;SDS011;7619;48.562;8.910;2023-02-23T04:21:35;17.30;;;12.13;;
15043;SDS011;7619;48.562;8.910;2023-02-23T04:24:04;19.80;;;12.37;;
15043;SDS011;7619;48.562;8.910;2023-02-23T04:26:33;17.00;;;11.90;;
15043;SDS011;7619;48.562;8.910;2023-02-23T04:29:02;18.73;;;12.03;;
15043;SDS011;7619;48.562;8.910;2023-02-23T04:31:31;19.67;;;13.40;;
15043;SDS011;7619;48.562;8.910;2023-02-23T04:34:00;17.77;;;11.90;;
15043;SDS011;7619;48.562;8.910;2023-02-23T04:36:30;18.67;;;12.67;;
15043;SDS011;7619;48.562;8.910;2023-02-23T04:38:58;16.67;;;12.60;;
15043;SDS011;7619;48.562;8.910;2023-02-23T04:41:26;16.60;;;11.67;;
15043;SDS011;7619;48.562;8.910;2023-02-23T04:43:54;22.03;;;13.17;;
15043;SDS011;7619;48.562;8.910;2023-02-23T04:46:23;20.67;;;12.50;;
15043;SDS011;7619;48.562;8.910;2023-02-23T04:48:52;18.00;;;11.87;;
15043;SDS011;7619;48.562;8.910;2023-02-23T04:51:21;18.53;;;13.70;;
15043;SDS011;7619;48.562;8.910;2023-02-23T04:53:52;18.53;;;13.80;;
15043;SDS011;7619;48.562;8.910;2023-02-23T04:56:20;21.00;;;13.43;;
15043;SDS011;7619;48.562;8.910;2023-02-23T04:58:48;17.83;;;12.13;;
15043;SDS011;7619;48.562;8.910;2023-02-23T05:03:53;15.87;;;11.80;;
15043;SDS011;7619;48.562;8.910;2023-02-23T05:06:23;18.20;;;12.23;;
15043;SDS011;7619;48.562;8.910;2023-02-23T05:08:51;15.33;;;10.33;;
15043;SDS011;7619;48.562;8.910;2023-02-23T05:11:19;17.90;;;12.23;;
15043;SDS011;7619;48.562;8.910;2023-02-23T05:13:47;19.40;;;12.20;;
15043;SDS011;7619;48.562;8.910;2023-02-23T05:16:15;20.70;;;12.57;;
15043;SDS011;7619;48.562;8.910;2023-02-23T05:18:43;16.83;;;11.10;;
15043;SDS011;7619;48.562;8.910;2023-02-23T05:21:13;17.73;;;12.07;;
15043;SDS011;7619;48.562;8.910;2023-02-23T05:23:43;20.93;;;12.17;;
15043;SDS011;7619;48.562;8.910;2023-02-23T05:26:13;18.67;;;12.37;;
15043;SDS011;7619;48.562;8.910;2023-02-23T05:28:42;20.17;;;13.40;;
15043;SDS011;7619;48.562;8.910;2023-02-23T05:31:09;21.63;;;11.70;;
15043;SDS011;7619;48.562;8.910;2023-02-23T05:33:38;18.87;;;12.97;;
15043;SDS011;7619;48.562;8.910;2023-02-23T05:36:08;19.40;;;12.60;;
15043;SDS011;7619;48.562;8.910;2023-02-23T05:38:38;21.50;;;13.13;;
15043;SDS011;7619;48.562;8.910;2023-02-23T05:41:09;17.57;;;12.20;;
15043;SDS011;7619;48.562;8.910;2023-02-23T05:43:37;17.40;;;12.53;;
15043;SDS011;7619;48.562;8.910;2023-02-23T05:46:15;18.97;;;12.40;;
15043;SDS011;7619;48.562;8.910;2023-02-23T05:48:46;17.20;;;12.10;;
15043;SDS011;7619;48.562;8.910;2023-02-23T05:51:16;17.40;;;11.80;;
15043;SDS011;7619;48.562;8.910;2023-02-23T05:53:44;18.50;;;12.10;;
15043;SDS011;7619;48.562;8.910;2023-02-23T05:56:14;16.70;;;11.83;;
15043;SDS011;7619;48.562;8.910;2023-02-23T05:58:46;16.97;;;11.97;;
15043;SDS011;7619;48.562;8.910;2023-02-23T06:01:15;18.03;;;12.30;;
15043;SDS011;7619;48.562;8.910;2023-02-23T06:03:43;18.93;;;12.10;;
15043;SDS011;7619;48.562;8.910;2023-02-23T06:06:13;19.53;;;12.37;;
15043;SDS011;7619;48.562;8.910;2023-02-23T06:08:42;18.23;;;12.13;;
15043;SDS011;7619;48.562;8.910;2023-02-23T06:11:10;16.80;;;10.67;;
15043;SDS011;7619;48.562;8.910;2023-02-23T06:13:38;20.13;;;11.47;;
15043;SDS011;7619;48.562;8.910;2023-02-23T06:16:07;17.03;;;12.27;;
15043;SDS011;7619;48.562;8.910;2023-02-23T06:18:36;20.40;;;12.43;;
15043;SDS011;7619;48.562;8.910;2023-02-23T06:21:05;20.23;;;12.47;;
15043;SDS011;7619;48.562;8.910;2023-02-23T06:23:32;20.10;;;12.03;;
15043;SDS011;7619;48.562;8.910;2023-02-23T06:26:01;16.30;;;11.10;;
15043;SDS011;7619;48.562;8.910;2023-02-23T06:28:31;14.93;;;10.77;;
15043;SDS011;7619;48.562;8.910;2023-02-23T06:31:01;20.27;;;11.83;;
15043;SDS011;7619;48.562;8.910;2023-02-23T06:33:29;21.03;;;11.43;;
15043;SDS011;7619;48.562;8.910;2023-02-23T06:35:58;16.40;;;10.53;;
15043;SDS011;7619;48.562;8.910;2023-02-23T06:38:26;15.47;;;11.40;;
15043;SDS011;7619;48.562;8.910;2023-02-23T06:40:55;17.80;;;12.00;;
15043;SDS011;7619;48.562;8.910;2023-02-23T06:43:23;16.20;;;11.13;;
15043;SDS011;7619;48.562;8.910;2023-02-23T06:45:51;16.23;;;11.13;;
15043;SDS011;7619;48.562;8.910;2023-02-23T06:48:19;16.60;;;11.87;;
15043;SDS011;7619;48.562;8.910;2023-02-23T06:50:48;16.37;;;10.83;;
15043;SDS011;7619;48.562;8.910;2023-02-23T06:53:16;22.37;;;12.67;;
15043;SDS011;7619;48.562;8.910;2023-02-23T06:55:46;16.50;;;11.37;;
15043;SDS011;7619;48.562;8.910;2023-02-23T06:58:14;15.10;;;11.07;;
15043;SDS011;7619;48.562;8.910;2023-02-23T07:00:42;18.10;;;12.63;;
15043;SDS011;7619;48.562;8.910;2023-02-23T07:03:09;18.73;;;12.93;;
15043;SDS011;7619;48.562;8.910;2023-02-23T07:05:39;17.43;;;12.77;;
15043;SDS011;7619;48.562;8.910;2023-02-23T07:08:06;18.53;;;12.50;;
15043;SDS011;7619;48.562;8.910;2023-02-23T07:10:35;17.50;;;11.70;;
15043;SDS011;7619;48.562;8.910;2023-02-23T07:13:05;20.40;;;13.03;;
15043;SDS011;7619;48.562;8.910;2023-02-23T07:15:34;20.77;;;13.50;;
15043;SDS011;7619;48.562;8.910;2023-02-23T07:18:03;22.80;;;13.40;;
15043;SDS011;7619;48.562;8.910;2023-02-23T07:20:32;19.17;;;12.30;;
15043;SDS011;7619;48.562;8.910;2023-02-23T07:23:00;18.87;;;12.53;;
15043;SDS011;7619;48.562;8.910;2023-02-23T07:25:29;18.10;;;13.00;;
15043;SDS011;7619;48.562;8.910;2023-02-23T07:27:58;19.47;;;13.33;;
15043;SDS011;7619;48.562;8.910;2023-02-23T07:30:26;20.83;;;13.33;;
15043;SDS011;7619;48.562;8.910;2023-02-23T07:32:55;19.77;;;12.80;;
15043;SDS011;7619;48.562;8.910;2023-02-23T07:35:22;20.03;;;11.87;;
15043;SDS011;7619;48.562;8.910;2023-02-23T07:37:51;17.63;;;11.50;;
15043;SDS011;7619;48.562;8.910;2023-02-23T07:40:21;20.07;;;12.90;;
15043;SDS011;7619;48.562;8.910;2023-02-23T07:42:50;17.50;;;12.70;;
15043;SDS011;7619;48.562;8.910;2023-02-23T07:45:21;19.50;;;12.33;;
15043;SDS011;7619;48.562;8.910;2023-02-23T07:47:50;21.20;;;12.90;;
15043;SDS011;7619;48.562;8.910;2023-02-23T07:50:19;18.07;;;12.77;;
15043;SDS011;7619;48.562;8.910;2023-02-23T07:52:47;17.90;;;13.07;;
15043;SDS011;7619;48.562;8.910;2023-02-23T07:55:18;20.37;;;13.40;;
15043;SDS011;7619;48.562;8.910;2023-02-23T07:57:47;17.23;;;12.73;;
15043;SDS011;7619;48.562;8.910;2023-02-23T08:00:17;16.97;;;11.90;;
15043;SDS011;7619;48.562;8.910;2023-02-23T08:02:46;35.37;;;23.30;;
15043;SDS011;7619;48.562;8.910;2023-02-23T08:05:15;30.07;;;19.27;;
15043;SDS011;7619;48.562;8.910;2023-02-23T08:07:44;22.77;;;12.97;;
15043;SDS011;7619;48.562;8.910;2023-02-23T08:10:13;16.13;;;12.23;;
15043;SDS011;7619;48.562;8.910;2023-02-23T08:12:41;14.53;;;10.93;;
15043;SDS011;7619;48.562;8.910;2023-02-23T08:17:46;12.90;;;9.33;;
15043;SDS011;7619;48.562;8.910;2023-02-23T08:20:14;12.67;;;9.13;;
15043;SDS011;7619;48.562;8.910;2023-02-23T08:22:43;9.77;;;8.23;;
15043;SDS011;7619;48.562;8.910;2023-02-23T08:25:12;12.43;;;8.50;;
15043;SDS011;7619;48.562;8.910;2023-02-23T08:27:42;12.13;;;8.80;;
15043;SDS011;7619;48.562;8.910;2023-02-23T08:30:11;23.50;;;16.07;;
15043;SDS011;7619;48.562;8.910;2023-02-23T08:32:40;19.47;;;11.23;;
15043;SDS011;7619;48.562;8.910;2023-02-23T08:35:09;24.33;;;15.40;;
15043;SDS011;7619;48.562;8.910;2023-02-23T08:37:37;18.50;;;12.43;;
15043;SDS011;7619;48.562;8.910;2023-02-23T08:40:08;14.83;;;10.23;;
15043;SDS011;7619;48.562;8.910;2023-02-23T08:42:38;10.10;;;5.57;;
15043;SDS011;7619;48.562;8.910;2023-02-23T08:45:07;15.70;;;6.23;;
15043;SDS011;7619;48.562;8.910;2023-02-23T08:47:35;12.90;;;6.67;;
15043;SDS011;7619;48.562;8.910;2023-02-23T08:50:05;16.30;;;10.40;;
15043;SDS011;7619;48.562;8.910;2023-02-23T08:52:32;10.33;;;7.40;;
15043;SDS011;7619;48.562;8.910;2023-02-23T08:55:01;9.57;;;6.50;;
15043;SDS011;7619;48.562;8.910;2023-02-23T08:57:31;9.47;;;7.03;;
15043;SDS011;7619;48.562;8.910;2023-02-23T09:00:00;9.53;;;7.50;;
15043;SDS011;7619;48.562;8.910;2023-02-23T09:02:32;11.97;;;7.43;;
15043;SDS011;7619;48.562;8.910;2023-02-23T09:05:00;10.10;;;7.50;;
15043;SDS011;7619;48.562;8.910;2023-02-23T09:07:29;13.70;;;8.40;;
15043;SDS011;7619;48.562;8.910;2023-02-23T09:09:58;12.17;;;7.77;;
15043;SDS011;7619;48.562;8.910;2023-02-23T09:12:27;10.77;;;7.43;;
15043;SDS011;7619;48.562;8.910;2023-02-23T09:14:55;8.60;;;6.37;;
15043;SDS011;7619;48.562;8.910;2023-02-23T09:17:23;8.77;;;6.73;;
15043;SDS011;7619;48.562;8.910;2023-02-23T09:19:51;10.63;;;6.87;;
15043;SDS011;7619;48.562;8.910;2023-02-23T09:22:21;10.17;;;6.07;;
15043;SDS011;7619;48.562;8.910;2023-02-23T09:24:49;12.27;;;6.67;;
15043;SDS011;7619;48.562;8.910;2023-02-23T09:29:53;8.37;;;6.17;;
15043;SDS011;7619;48.562;8.910;2023-02-23T09:32:21;8.50;;;5.90;;
15043;SDS011;7619;48.562;8.910;2023-02-23T09:34:49;10.57;;;6.77;;
15043;SDS011;7619;48.562;8.910;2023-02-23T09:39:53;13.10;;;7.13;;
15043;SDS011;7619;48.562;8.910;2023-02-23T09:45:13;13.70;;;7.67;;
15043;SDS011;7619;48.562;8.910;2023-02-23T09:47:45;9.83;;;7.27;;
15043;SDS011;7619;48.562;8.910;2023-02-23T09:50:15;7.40;;;5.77;;
15043;SDS011;7619;48.562;8.910;2023-02-23T09:52:44;9.10;;;5.57;;
15043;SDS011;7619;48.562;8.910;2023-02-23T09:55:12;6.70;;;4.57;;
15043;SDS011;7619;48.562;8.910;2023-02-23T09:57:43;9.20;;;6.10;;
15043;SDS011;7619;48.562;8.910;2023-02-23T10:00:16;7.30;;;5.17;;
15043;SDS011;7619;48.562;8.910;2023-02-23T10:02:56;9.50;;;5.30;;
15043;SDS011;7619;48.562;8.910;2023-02-23T10:05:38;8.20;;;5.37;;
15043;SDS011;7619;48.562;8.910;2023-02-23T10:08:06;9.13;;;5.73;;
15043;SDS011;7619;48.562;8.910;2023-02-23T10:10:37;8.63;;;5.13;;
15043;SDS011;7619;48.562;8.910;2023-02-23T10:13:10;10.10;;;5.60;;
15043;SDS011;7619;48.562;8.910;2023-02-23T10:15:43;11.13;;;4.93;;
15043;SDS011;7619;48.562;8.910;2023-02-23T10:18:17;6.77;;;4.70;;
15043;SDS011;7619;48.562;8.910;2023-02-23T10:20:51;7.10;;;4.23;;
15043;SDS011;7619;48.562;8.910;2023-02-23T10:23:21;7.07;;;4.60;;
15043;SDS011;7619;48.562;8.910;2023-02-23T10:25:48;6.57;;;4.83;;
15043;SDS011;7619;48.562;8.910;2023-02-23T10:28:18;6.93;;;4.20;;
15043;SDS011;7619;48.562;8.910;2023-02-23T10:30:49;7.17;;;4.33;;
15043;SDS011;7619;48.562;8.910;2023-02-23T10:33:19;6.40;;;4.37;;
15043;SDS011;7619;48.562;8.910;2023-02-23T10:35:47;6.50;;;4.27;;
15043;SDS011;7619;48.562;8.910;2023-02-23T10:38:19;8.47;;;4.93;;
15043;SDS011;7619;48.562;8.910;2023-02-23T10:40:48;6.83;;;4.57;;
15043;SDS011;7619;48.562;8.910;2023-02-23T10:43:16;7.80;;;4.43;;
15043;SDS011;7619;48.562;8.910;2023-02-23T10:45:48;7.10;;;5.10;;
15043;SDS011;7619;48.562;8.910;2023-02-23T10:48:15;8.20;;;4.93;;
15043;SDS011;7619;48.562;8.910;2023-02-23T10:50:46;8.40;;;4.17;;
15043;SDS011;7619;48.562;8.910;2023-02-23T10:53:18;5.50;;;3.27;;
15043;SDS011;7619;48.562;8.910;2023-02-23T10:55:58;7.07;;;4.00;;
15043;SDS011;7619;48.562;8.910;2023-02-23T10:58:17;6.53;;;3.77;;
15043;SDS011;7619;48.562;8.910;2023-02-23T11:00:52;6.53;;;4.27;;
15043;SDS011;7619;48.562;8.910;2023-02-23T11:03:22;5.13;;;3.27;;
15043;SDS011;7619;48.562;8.910;2023-02-23T11:05:51;7.10;;;3.50;;
15043;SDS011;7619;48.562;8.910;2023-02-23T11:08:22;10.60;;;3.80;;
15043;SDS011;7619;48.562;8.910;2023-02-23T11:10:58;8.60;;;4.00;;
15043;SDS011;7619;48.562;8.910;2023-02-23T11:13:26;11.10;;;4.40;;
15043;SDS011;7619;48.562;8.910;2023-02-23T11:15:58;8.87;;;3.63;;
15043;SDS011;7619;48.562;8.910;2023-02-23T11:18:27;6.50;;;3.60;;
15043;SDS011;7619;48.562;8.910;2023-02-23T11:20:57;7.93;;;4.67;;
15043;SDS011;7619;48.562;8.910;2023-02-23T11:23:27;7.60;;;3.93;;
15043;SDS011;7619;48.562;8.910;2023-02-23T11:25:59;6.20;;;4.13;;
15043;SDS011;7619;48.562;8.910;2023-02-23T11:28:31;10.70;;;3.90;;
15043;SDS011;7619;48.562;8.910;2023-02-23T11:31:01;6.17;;;3.93;;
15043;SDS011;7619;48.562;8.910;2023-02-23T11:33:32;7.43;;;3.87;;
15043;SDS011;7619;48.562;8.910;2023-02-23T11:36:14;9.83;;;3.47;;
15043;SDS011;7619;48.562;8.910;2023-02-23T11:38:43;8.10;;;3.80;;
15043;SDS011;7619;48.562;8.910;2023-02-23T11:41:17;7.00;;;4.37;;
15043;SDS011;7619;48.562;8.910;2023-02-23T11:43:47;9.87;;;4.23;;
15043;SDS011;7619;48.562;8.910;2023-02-23T11:46:17;5.50;;;3.90;;
15043;SDS011;7619;48.562;8.910;2023-02-23T11:48:48;5.03;;;3.47;;
15043;SDS011;7619;48.562;8.910;2023-02-23T11:51:30;8.07;;;3.13;;
15043;SDS011;7619;48.562;8.910;2023-02-23T11:53:58;5.93;;;3.47;;
15043;SDS011;7619;48.562;8.910;2023-02-23T11:56:29;7.27;;;3.23;;
15043;SDS011;7619;48.562;8.910;2023-02-23T11:58:58;5.60;;;3.73;;
15043;SDS011;7619;48.562;8.910;2023-02-23T12:01:36;7.37;;;3.50;;
15043;SDS011;7619;48.562;8.910;2023-02-23T12:04:10;11.57;;;3.40;;
15043;SDS011;7619;48.562;8.910;2023-02-23T12:06:54;9.13;;;3.37;;
15043;SDS011;7619;48.562;8.910;2023-02-23T12:09:31;6.30;;;3.70;;
15043;SDS011;7619;48.562;8.910;2023-02-23T12:12:02;5.83;;;3.70;;
15043;SDS011;7619;48.562;8.910;2023-02-23T12:14:35;5.83;;;3.43;;
15043;SDS011;7619;48.562;8.910;2023-02-23T12:17:13;4.43;;;3.13;;
15043;SDS011;7619;48.562;8.910;2023-02-23T12:19:45;5.43;;;3.17;;
15043;SDS011;7619;48.562;8.910;2023-02-23T12:22:14;4.47;;;3.00;;
15043;SDS011;7619;48.562;8.910;2023-02-23T12:24:43;6.00;;;3.40;;
15043;SDS011;7619;48.562;8.910;2023-02-23T12:27:15;4.50;;;2.90;;
15043;SDS011;7619;48.562;8.910;2023-02-23T12:29:57;5.07;;;3.27;;
15043;SDS011;7619;48.562;8.910;2023-02-23T12:32:25;6.77;;;3.03;;
15043;SDS011;7619;48.562;8.910;2023-02-23T12:34:57;5.33;;;3.60;;
15043;SDS011;7619;48.562;8.910;2023-02-23T12:37:36;7.30;;;3.63;;
15043;SDS011;7619;48.562;8.910;2023-02-23T12:40:14;5.37;;;2.73;;
15043;SDS011;7619;48.562;8.910;2023-02-23T12:45:21;6.90;;;3.63;;
15043;SDS011;7619;48.562;8.910;2023-02-23T12:47:52;5.97;;;3.40;;
15043;SDS011;7619;48.562;8.910;2023-02-23T12:50:23;7.10;;;3.63;;
15043;SDS011;7619;48.562;8.910;2023-02-23T12:52:55;5.83;;;3.27;;
15043;SDS011;7619;48.562;8.910;2023-02-23T12:55:27;6.10;;;3.77;;
15043;SDS011;7619;48.562;8.910;2023-02-23T12:58:02;7.43;;;3.30;;
15043;SDS011;7619;48.562;8.910;2023-02-23T13:00:35;5.70;;;3.67;;
15043;SDS011;7619;48.562;8.910;2023-02-23T13:03:24;6.63;;;3.23;;
15043;SDS011;7619;48.562;8.910;2023-02-23T13:05:53;5.17;;;3.40;;
15043;SDS011;7619;48.562;8.910;2023-02-23T13:08:25;7.57;;;3.37;;
15043;SDS011;7619;48.562;8.910;2023-02-23T13:10:58;9.07;;;3.47;;
15043;SDS011;7619;48.562;8.910;2023-02-23T13:13:38;7.97;;;3.57;;
15043;SDS011;7619;48.562;8.910;2023-02-23T13:16:08;5.67;;;3.30;;
15043;SDS011;7619;48.562;8.910;2023-02-23T13:18:39;10.23;;;3.63;;
15043;SDS011;7619;48.562;8.910;2023-02-23T13:21:08;7.03;;;3.00;;
15043;SDS011;7619;48.562;8.910;2023-02-23T13:23:37;7.20;;;3.40;;
15043;SDS011;7619;48.562;8.910;2023-02-23T13:26:10;4.27;;;3.07;;
15043;SDS011;7619;48.562;8.910;2023-02-23T13:28:44;9.87;;;4.10;;
15043;SDS011;7619;48.562;8.910;2023-02-23T13:31:21;5.83;;;3.17;;
15043;SDS011;7619;48.562;8.910;2023-02-23T13:33:54;5.93;;;3.17;;
15043;SDS011;7619;48.562;8.910;2023-02-23T13:36:23;5.47;;;3.00;;
15043;SDS011;7619;48.562;8.910;2023-02-23T13:38:58;10.83;;;3.50;;
15043;SDS011;7619;48.562;8.910;2023-02-23T13:41:44;5.17;;;3.90;;
15043;SDS011;7619;48.562;8.910;2023-02-23T13:44:15;5.57;;;3.53;;
15043;SDS011;7619;48.562;8.910;2023-02-23T13:46:47;6.37;;;3.07;;
15043;SDS011;7619;48.562;8.910;2023-02-23T13:49:21;5.97;;;3.00;;
15043;SDS011;7619;48.562;8.910;2023-02-23T13:51:53;6.60;;;2.47;;
15043;SDS011;7619;48.562;8.910;2023-02-23T13:54:24;9.70;;;2.97;;
15043;SDS011;7619;48.562;8.910;2023-02-23T13:56:55;6.00;;;3.20;;
15043;SDS011;7619;48.562;8.910;2023-02-23T13:59:27;6.23;;;3.40;;
15043;SDS011;7619;48.562;8.910;2023-02-23T14:01:55;7.23;;;3.47;;
15043;SDS011;7619;48.562;8.910;2023-02-23T14:04:24;8.67;;;3.60;;
15043;SDS011;7619;48.562;8.910;2023-02-23T14:06:54;8.10;;;3.37;;
15043;SDS011;7619;48.562;8.910;2023-02-23T14:09:28;7.00;;;3.60;;
15043;SDS011;7619;48.562;8.910;2023-02-23T14:12:04;6.80;;;3.43;;
15043;SDS011;7619;48.562;8.910;2023-02-23T14:14:43;9.50;;;3.60;;
15043;SDS011;7619;48.562;8.910;2023-02-23T14:17:38;6.77;;;3.90;;
15043;SDS011;7619;48.562;8.910;2023-02-23T14:20:13;9.27;;;3.50;;
15043;SDS011;7619;48.562;8.910;2023-02-23T14:25:44;5.67;;;3.10;;
15043;SDS011;7619;48.562;8.910;2023-02-23T14:28:24;6.27;;;3.30;;
15043;SDS011;7619;48.562;8.910;2023-02-23T14:30:59;7.80;;;3.57;;
15043;SDS011;7619;48.562;8.910;2023-02-23T14:33:37;4.73;;;3.03;;
15043;SDS011;7619;48.562;8.910;2023-02-23T14:36:27;7.27;;;3.23;;
15043;SDS011;7619;48.562;8.910;2023-02-23T14:39:07;5.50;;;2.83;;
15043;SDS011;7619;48.562;8.910;2023-02-23T14:41:38;8.00;;;5.03;;
15043;SDS011;7619;48.562;8.910;2023-02-23T14:44:11;5.17;;;3.87;;
15043;SDS011;7619;48.562;8.910;2023-02-23T14:46:49;4.83;;;3.20;;
15043;SDS011;7619;48.562;8.910;2023-02-23T14:49:25;6.13;;;3.97;;
15043;SDS011;7619;48.562;8.910;2023-02-23T14:51:54;4.43;;;3.23;;
15043;SDS011;7619;48.562;8.910;2023-02-23T14:54:28;11.10;;;4.77;;
15043;SDS011;7619;48.562;8.910;2023-02-23T14:56:59;4.37;;;3.13;;
15043;SDS011;7619;48.562;8.910;2023-02-23T14:59:35;5.60;;;3.80;;
15043;SDS011;7619;48.562;8.910;2023-02-23T15:02:07;5.50;;;3.40;;
15043;SDS011;7619;48.562;8.910;2023-02-23T15:04:35;6.63;;;3.47;;
15043;SDS011;7619;48.562;8.910;2023-02-23T15:07:05;4.97;;;3.37;;
15043;SDS011;7619;48.562;8.910;2023-02-23T15:09:35;4.00;;;3.17;;
15043;SDS011;7619;48.562;8.910;2023-02-23T15:12:22;4.07;;;2.87;;
15043;SDS011;7619;48.562;8.910;2023-02-23T15:14:55;5.13;;;3.20;;
15043;SDS011;7619;48.562;8.910;2023-02-23T15:17:27;4.47;;;3.53;;
15043;SDS011;7619;48.562;8.910;2023-02-23T15:19:58;3.63;;;2.30;;
15043;SDS011;7619;48.562;8.910;2023-02-23T15:22:32;6.30;;;3.50;;
15043;SDS011;7619;48.562;8.910;2023-02-23T15:25:10;4.60;;;3.00;;
15043;SDS011;7619;48.562;8.910;2023-02-23T15:27:36;6.27;;;3.07;;
15043;SDS011;7619;48.562;8.910;2023-02-23T15:30:19;6.67;;;3.57;;
15043;SDS011;7619;48.562;8.910;2023-02-23T15:32:47;5.77;;;3.23;;
15043;SDS011;7619;48.562;8.910;2023-02-23T15:35:18;4.97;;;3.23;;
15043;SDS011;7619;48.562;8.910;2023-02-23T15:37:46;5.73;;;2.93;;
15043;SDS011;7619;48.562;8.910;2023-02-23T15:40:15;7.23;;;3.50;;
15043;SDS011;7619;48.562;8.910;2023-02-23T15:42:47;5.20;;;4.03;;